sensor_id;sensor_type;location;lat;lon;timestamp;temperature;humidity
25128;DHT22;13107;51.304;6.866;2023-08-01T00:03:03;16.60;99.90
25128;DHT22;13107;51.304;6.866;2023-08-01T00:07:04;16.60;99.90
25128;DHT22;13107;51.304;6.866;2023-08-01T00:11:06;16.60;99.90
25128;DHT22;13107;51.304;6.866;2023-08-01T00:15:09;16.60;99.90
25128;DHT22;13107;51.304;6.866;2023-08-01T00:19:10;16.60;99.90
25128;DHT22;13107;51.304;6.866;2023-08-01T00:23:13;16.50;99.90
25128;DHT22;13107;51.304;6.866;2023-08-01T00:27:15;16.60;99.90
25128;DHT22;13107;51.304;6.866;2023-08-01T00:31:17;16.60;99.90
25128;DHT22;13107;51.304;6.866;2023-08-01T00:35:19;16.50;99.90
25128;DHT22;13107;51.304;6.866;2023-08-01T00:39:20;16.40;99.90
25128;DHT22;13107;51.304;6.866;2023-08-01T00:43:22;16.50;99.90
25128;DHT22;13107;51.304;6.866;2023-08-01T00:47:24;16.50;99.90
25128;DHT22;13107;51.304;6.866;2023-08-01T00:51:26;16.50;99.90
25128;DHT22;13107;51.304;6.866;2023-08-01T00:55:31;16.50;99.90
25128;DHT22;13107;51.304;6.866;2023-08-01T00:59:33;16.50;99.90
25128;DHT22;13107;51.304;6.866;2023-08-01T01:03:37;16.40;99.90
25128;DHT22;13107;51.304;6.866;2023-08-01T01:07:39;16.40;99.90
25128;DHT22;13107;51.304;6.866;2023-08-01T01:11:41;16.40;99.90
25128;DHT22;13107;51.304;6.866;2023-08-01T01:15:43;16.30;99.90
25128;DHT22;13107;51.304;6.866;2023-08-01T01:19:44;16.40;99.90
25128;DHT22;13107;51.304;6.866;2023-08-01T01:23:47;16.40;99.90
25128;DHT22;13107;51.304;6.866;2023-08-01T01:27:51;16.40;99.90
25128;DHT22;13107;51.304;6.866;2023-08-01T01:31:55;16.40;99.90
25128;DHT22;13107;51.304;6.866;2023-08-01T01:35:57;16.40;99.90
25128;DHT22;13107;51.304;6.866;2023-08-01T01:39:58;16.40;99.90
25128;DHT22;13107;51.304;6.866;2023-08-01T01:44:00;16.40;99.90
25128;DHT22;13107;51.304;6.866;2023-08-01T01:48:02;16.40;99.90
25128;DHT22;13107;51.304;6.866;2023-08-01T01:52:04;16.50;99.90
25128;DHT22;13107;51.304;6.866;2023-08-01T01:56:06;16.50;99.90
25128;DHT22;13107;51.304;6.866;2023-08-01T02:00:08;16.40;99.90
25128;DHT22;13107;51.304;6.866;2023-08-01T02:04:13;16.50;99.90
25128;DHT22;13107;51.304;6.866;2023-08-01T02:08:15;16.60;99.90
25128;DHT22;13107;51.304;6.866;2023-08-01T02:12:16;16.50;99.90
25128;DHT22;13107;51.304;6.866;2023-08-01T02:16:18;16.60;99.90
25128;DHT22;13107;51.304;6.866;2023-08-01T02:20:20;16.50;99.90
25128;DHT22;13107;51.304;6.866;2023-08-01T02:24:22;16.50;99.90
25128;DHT22;13107;51.304;6.866;2023-08-01T02:28:23;16.40;99.90
25128;DHT22;13107;51.304;6.866;2023-08-01T02:32:25;16.30;99.90
25128;DHT22;13107;51.304;6.866;2023-08-01T02:36:28;16.30;99.90
25128;DHT22;13107;51.304;6.866;2023-08-01T02:40:30;16.10;99.90
25128;DHT22;13107;51.304;6.866;2023-08-01T02:44:32;16.10;99.90
25128;DHT22;13107;51.304;6.866;2023-08-01T02:48:33;16.00;99.90
25128;DHT22;13107;51.304;6.866;2023-08-01T02:52:37;16.00;99.90
25128;DHT22;13107;51.304;6.866;2023-08-01T02:56:38;15.90;99.90
25128;DHT22;13107;51.304;6.866;2023-08-01T03:00:43;15.90;99.90
25128;DHT22;13107;51.304;6.866;2023-08-01T03:04:45;15.80;99.90
25128;DHT22;13107;51.304;6.866;2023-08-01T03:08:48;15.70;99.90
25128;DHT22;13107;51.304;6.866;2023-08-01T03:12:49;15.70;99.90
25128;DHT22;13107;51.304;6.866;2023-08-01T03:16:51;15.70;99.90
25128;DHT22;13107;51.304;6.866;2023-08-01T03:20:53;15.60;99.90
25128;DHT22;13107;51.304;6.866;2023-08-01T03:24:55;15.70;99.90
25128;DHT22;13107;51.304;6.866;2023-08-01T03:28:56;15.60;99.90
25128;DHT22;13107;51.304;6.866;2023-08-01T03:32:59;15.40;99.90
25128;DHT22;13107;51.304;6.866;2023-08-01T03:37:01;15.40;99.90
25128;DHT22;13107;51.304;6.866;2023-08-01T03:41:03;15.30;99.90
25128;DHT22;13107;51.304;6.866;2023-08-01T03:45:06;15.20;99.90
25128;DHT22;13107;51.304;6.866;2023-08-01T03:49:08;15.20;99.90
25128;DHT22;13107;51.304;6.866;2023-08-01T03:53:10;15.10;99.90
25128;DHT22;13107;51.304;6.866;2023-08-01T03:57:13;15.10;99.90
25128;DHT22;13107;51.304;6.866;2023-08-01T04:01:14;15.00;99.90
25128;DHT22;13107;51.304;6.866;2023-08-01T04:05:17;15.00;99.90
25128;DHT22;13107;51.304;6.866;2023-08-01T04:09:19;15.00;99.90
25128;DHT22;13107;51.304;6.866;2023-08-01T04:13:21;15.00;99.90
25128;DHT22;13107;51.304;6.866;2023-08-01T04:17:22;15.00;99.90
25128;DHT22;13107;51.304;6.866;2023-08-01T04:21:24;14.90;99.90
25128;DHT22;13107;51.304;6.866;2023-08-01T04:25:27;14.90;99.90
25128;DHT22;13107;51.304;6.866;2023-08-01T04:29:29;15.00;99.90
25128;DHT22;13107;51.304;6.866;2023-08-01T04:33:30;15.00;99.90
25128;DHT22;13107;51.304;6.866;2023-08-01T04:37:32;15.00;99.90
25128;DHT22;13107;51.304;6.866;2023-08-01T04:41:34;15.00;99.90
25128;DHT22;13107;51.304;6.866;2023-08-01T04:45:36;15.00;99.90
25128;DHT22;13107;51.304;6.866;2023-08-01T04:49:38;15.00;99.90
25128;DHT22;13107;51.304;6.866;2023-08-01T04:53:39;15.00;99.90
25128;DHT22;13107;51.304;6.866;2023-08-01T04:57:41;15.00;99.90
25128;DHT22;13107;51.304;6.866;2023-08-01T05:01:44;15.00;99.90
25128;DHT22;13107;51.304;6.866;2023-08-01T05:05:45;15.00;99.90
25128;DHT22;13107;51.304;6.866;2023-08-01T05:09:47;15.00;99.90
25128;DHT22;13107;51.304;6.866;2023-08-01T05:13:49;15.10;99.90
25128;DHT22;13107;51.304;6.866;2023-08-01T05:17:52;15.00;99.90
25128;DHT22;13107;51.304;6.866;2023-08-01T05:21:53;15.10;99.90
25128;DHT22;13107;51.304;6.866;2023-08-01T05:25:56;15.10;99.90
25128;DHT22;13107;51.304;6.866;2023-08-01T05:29:58;15.10;99.90
25128;DHT22;13107;51.304;6.866;2023-08-01T05:34:00;15.10;99.90
25128;DHT22;13107;51.304;6.866;2023-08-01T05:38:01;15.10;99.90
25128;DHT22;13107;51.304;6.866;2023-08-01T05:42:03;15.10;99.90
25128;DHT22;13107;51.304;6.866;2023-08-01T05:46:10;15.20;99.90
25128;DHT22;13107;51.304;6.866;2023-08-01T05:50:12;15.20;99.90
25128;DHT22;13107;51.304;6.866;2023-08-01T05:54:14;15.30;99.90
25128;DHT22;13107;51.304;6.866;2023-08-01T05:58:16;15.30;99.90
25128;DHT22;13107;51.304;6.866;2023-08-01T06:02:17;15.30;99.90
25128;DHT22;13107;51.304;6.866;2023-08-01T06:06:19;15.30;99.90
25128;DHT22;13107;51.304;6.866;2023-08-01T06:10:21;15.30;99.90
25128;DHT22;13107;51.304;6.866;2023-08-01T06:14:23;15.40;99.90
25128;DHT22;13107;51.304;6.866;2023-08-01T06:18:25;15.50;99.90
25128;DHT22;13107;51.304;6.866;2023-08-01T06:22:27;15.40;99.90
25128;DHT22;13107;51.304;6.866;2023-08-01T06:26:29;15.40;99.90
25128;DHT22;13107;51.304;6.866;2023-08-01T06:30:30;15.30;99.90
25128;DHT22;13107;51.304;6.866;2023-08-01T06:34:32;15.30;99.90
25128;DHT22;13107;51.304;6.866;2023-08-01T06:38:34;15.30;99.90
25128;DHT22;13107;51.304;6.866;2023-08-01T06:42:35;15.40;99.90
25128;DHT22;13107;51.304;6.866;2023-08-01T06:46:37;15.40;99.90
25128;DHT22;13107;51.304;6.866;2023-08-01T06:50:39;15.50;99.90
25128;DHT22;13107;51.304;6.866;2023-08-01T06:54:41;15.50;99.90
25128;DHT22;13107;51.304;6.866;2023-08-01T06:58:43;15.60;99.90
25128;DHT22;13107;51.304;6.866;2023-08-01T07:02:45;15.60;99.90
25128;DHT22;13107;51.304;6.866;2023-08-01T07:06:46;15.60;99.90
25128;DHT22;13107;51.304;6.866;2023-08-01T07:10:48;15.60;99.90
25128;DHT22;13107;51.304;6.866;2023-08-01T07:14:50;15.60;99.90
25128;DHT22;13107;51.304;6.866;2023-08-01T07:18:52;15.70;99.90
25128;DHT22;13107;51.304;6.866;2023-08-01T07:22:53;15.70;99.90
25128;DHT22;13107;51.304;6.866;2023-08-01T07:26:55;15.80;99.90
25128;DHT22;13107;51.304;6.866;2023-08-01T07:31:05;15.80;99.90
25128;DHT22;13107;51.304;6.866;2023-08-01T07:35:08;15.80;99.90
25128;DHT22;13107;51.304;6.866;2023-08-01T07:39:09;15.90;99.90
25128;DHT22;13107;51.304;6.866;2023-08-01T07:43:11;16.00;99.90
25128;DHT22;13107;51.304;6.866;2023-08-01T07:47:14;16.00;99.90
25128;DHT22;13107;51.304;6.866;2023-08-01T07:51:16;16.10;99.90
25128;DHT22;13107;51.304;6.866;2023-08-01T07:55:17;16.10;99.90
25128;DHT22;13107;51.304;6.866;2023-08-01T07:59:19;16.20;99.90
25128;DHT22;13107;51.304;6.866;2023-08-01T08:03:21;16.30;99.90
25128;DHT22;13107;51.304;6.866;2023-08-01T08:07:24;16.40;99.90
25128;DHT22;13107;51.304;6.866;2023-08-01T08:11:25;16.60;99.90
25128;DHT22;13107;51.304;6.866;2023-08-01T08:15:27;16.70;99.90
25128;DHT22;13107;51.304;6.866;2023-08-01T08:19:29;16.60;99.90
25128;DHT22;13107;51.304;6.866;2023-08-01T08:23:30;16.60;99.90
25128;DHT22;13107;51.304;6.866;2023-08-01T08:27:32;16.70;99.90
25128;DHT22;13107;51.304;6.866;2023-08-01T08:31:34;16.80;99.90
25128;DHT22;13107;51.304;6.866;2023-08-01T08:35:37;16.70;99.90
25128;DHT22;13107;51.304;6.866;2023-08-01T08:39:39;16.70;99.90
25128;DHT22;13107;51.304;6.866;2023-08-01T08:43:41;16.80;99.90
25128;DHT22;13107;51.304;6.866;2023-08-01T08:47:44;16.80;99.90
25128;DHT22;13107;51.304;6.866;2023-08-01T08:51:47;16.80;99.90
25128;DHT22;13107;51.304;6.866;2023-08-01T08:55:48;16.70;99.90
25128;DHT22;13107;51.304;6.866;2023-08-01T08:59:51;16.70;99.90
25128;DHT22;13107;51.304;6.866;2023-08-01T09:03:54;16.60;99.90
25128;DHT22;13107;51.304;6.866;2023-08-01T09:08:01;17.90;99.90
25128;DHT22;13107;51.304;6.866;2023-08-01T09:12:06;19.00;99.90
25128;DHT22;13107;51.304;6.866;2023-08-01T09:16:10;19.50;99.90
25128;DHT22;13107;51.304;6.866;2023-08-01T09:20:12;19.70;99.90
25128;DHT22;13107;51.304;6.866;2023-08-01T09:24:19;19.90;99.90
25128;DHT22;13107;51.304;6.866;2023-08-01T09:28:22;20.20;99.90
25128;DHT22;13107;51.304;6.866;2023-08-01T09:32:24;20.80;99.90
25128;DHT22;13107;51.304;6.866;2023-08-01T09:36:26;20.20;99.90
25128;DHT22;13107;51.304;6.866;2023-08-01T09:40:39;19.50;99.90
25128;DHT22;13107;51.304;6.866;2023-08-01T09:44:45;18.50;99.90
25128;DHT22;13107;51.304;6.866;2023-08-01T09:48:47;18.00;99.90
25128;DHT22;13107;51.304;6.866;2023-08-01T09:52:49;18.20;99.90
25128;DHT22;13107;51.304;6.866;2023-08-01T09:56:55;18.20;99.90
25128;DHT22;13107;51.304;6.866;2023-08-01T10:00:57;18.70;99.90
25128;DHT22;13107;51.304;6.866;2023-08-01T10:05:00;18.80;99.90
25128;DHT22;13107;51.304;6.866;2023-08-01T10:09:02;18.40;99.90
25128;DHT22;13107;51.304;6.866;2023-08-01T10:13:05;18.30;99.90
25128;DHT22;13107;51.304;6.866;2023-08-01T10:17:07;18.20;99.90
25128;DHT22;13107;51.304;6.866;2023-08-01T10:21:15;18.10;99.90
25128;DHT22;13107;51.304;6.866;2023-08-01T10:25:18;18.20;99.90
25128;DHT22;13107;51.304;6.866;2023-08-01T10:29:21;18.20;99.90
25128;DHT22;13107;51.304;6.866;2023-08-01T10:33:33;18.30;99.90
25128;DHT22;13107;51.304;6.866;2023-08-01T10:37:44;18.40;99.90
25128;DHT22;13107;51.304;6.866;2023-08-01T10:42:00;18.90;99.90
25128;DHT22;13107;51.304;6.866;2023-08-01T10:46:04;18.90;99.90
25128;DHT22;13107;51.304;6.866;2023-08-01T10:50:14;18.60;99.90
25128;DHT22;13107;51.304;6.866;2023-08-01T10:54:24;18.30;99.90
25128;DHT22;13107;51.304;6.866;2023-08-01T10:58:27;18.30;99.90
25128;DHT22;13107;51.304;6.866;2023-08-01T11:02:30;18.10;99.90
25128;DHT22;13107;51.304;6.866;2023-08-01T11:06:43;18.20;99.90
25128;DHT22;13107;51.304;6.866;2023-08-01T11:10:49;18.50;99.90
25128;DHT22;13107;51.304;6.866;2023-08-01T11:14:51;18.70;99.90
25128;DHT22;13107;51.304;6.866;2023-08-01T11:18:53;19.30;99.90
25128;DHT22;13107;51.304;6.866;2023-08-01T11:22:59;19.70;99.90
25128;DHT22;13107;51.304;6.866;2023-08-01T11:27:06;19.50;99.90
25128;DHT22;13107;51.304;6.866;2023-08-01T11:31:12;19.00;99.90
25128;DHT22;13107;51.304;6.866;2023-08-01T11:35:18;18.70;99.90
25128;DHT22;13107;51.304;6.866;2023-08-01T11:39:20;18.20;99.90
25128;DHT22;13107;51.304;6.866;2023-08-01T11:43:24;18.30;99.90
25128;DHT22;13107;51.304;6.866;2023-08-01T11:47:26;18.30;99.90
25128;DHT22;13107;51.304;6.866;2023-08-01T11:51:28;18.10;99.90
25128;DHT22;13107;51.304;6.866;2023-08-01T11:55:35;17.80;99.90
25128;DHT22;13107;51.304;6.866;2023-08-01T11:59:49;17.40;99.90
25128;DHT22;13107;51.304;6.866;2023-08-01T12:03:54;17.20;99.90
25128;DHT22;13107;51.304;6.866;2023-08-01T12:07:56;17.10;99.90
25128;DHT22;13107;51.304;6.866;2023-08-01T12:11:58;17.00;99.90
25128;DHT22;13107;51.304;6.866;2023-08-01T12:16:02;17.00;99.90
25128;DHT22;13107;51.304;6.866;2023-08-01T12:20:04;17.10;99.90
25128;DHT22;13107;51.304;6.866;2023-08-01T12:24:06;17.20;99.90
25128;DHT22;13107;51.304;6.866;2023-08-01T12:28:08;17.20;99.90
25128;DHT22;13107;51.304;6.866;2023-08-01T12:32:10;17.20;99.90
25128;DHT22;13107;51.304;6.866;2023-08-01T12:36:12;17.20;99.90
25128;DHT22;13107;51.304;6.866;2023-08-01T12:40:14;17.40;99.90
25128;DHT22;13107;51.304;6.866;2023-08-01T12:44:16;17.70;99.90
25128;DHT22;13107;51.304;6.866;2023-08-01T12:48:19;18.30;99.90
25128;DHT22;13107;51.304;6.866;2023-08-01T12:52:24;19.00;99.90
25128;DHT22;13107;51.304;6.866;2023-08-01T12:56:26;19.40;99.90
25128;DHT22;13107;51.304;6.866;2023-08-01T13:00:28;20.00;99.90
25128;DHT22;13107;51.304;6.866;2023-08-01T13:04:31;20.50;99.90
25128;DHT22;13107;51.304;6.866;2023-08-01T13:08:33;20.80;99.90
25128;DHT22;13107;51.304;6.866;2023-08-01T13:12:35;21.30;99.90
25128;DHT22;13107;51.304;6.866;2023-08-01T13:16:36;21.30;99.90
25128;DHT22;13107;51.304;6.866;2023-08-01T13:20:38;21.10;99.90
25128;DHT22;13107;51.304;6.866;2023-08-01T13:24:40;21.30;99.90
25128;DHT22;13107;51.304;6.866;2023-08-01T13:28:42;21.40;99.90
25128;DHT22;13107;51.304;6.866;2023-08-01T13:32:44;21.40;99.90
25128;DHT22;13107;51.304;6.866;2023-08-01T13:36:46;21.30;99.90
25128;DHT22;13107;51.304;6.866;2023-08-01T13:40:48;21.30;99.90
25128;DHT22;13107;51.304;6.866;2023-08-01T13:44:50;20.80;99.90
25128;DHT22;13107;51.304;6.866;2023-08-01T13:48:52;20.90;99.90
25128;DHT22;13107;51.304;6.866;2023-08-01T13:52:53;20.60;99.90
25128;DHT22;13107;51.304;6.866;2023-08-01T13:56:55;20.80;99.90
25128;DHT22;13107;51.304;6.866;2023-08-01T14:01:02;20.90;99.90
25128;DHT22;13107;51.304;6.866;2023-08-01T14:05:04;21.30;99.90
25128;DHT22;13107;51.304;6.866;2023-08-01T14:09:06;21.60;99.90
25128;DHT22;13107;51.304;6.866;2023-08-01T14:13:08;21.70;99.90
25128;DHT22;13107;51.304;6.866;2023-08-01T14:17:10;21.50;99.90
25128;DHT22;13107;51.304;6.866;2023-08-01T14:21:12;21.90;99.90
25128;DHT22;13107;51.304;6.866;2023-08-01T14:25:13;22.00;99.90
25128;DHT22;13107;51.304;6.866;2023-08-01T14:29:15;21.40;99.90
25128;DHT22;13107;51.304;6.866;2023-08-01T14:33:17;20.90;99.90
25128;DHT22;13107;51.304;6.866;2023-08-01T14:37:19;21.10;99.90
25128;DHT22;13107;51.304;6.866;2023-08-01T14:41:20;21.00;99.90
25128;DHT22;13107;51.304;6.866;2023-08-01T14:45:42;20.80;99.90
25128;DHT22;13107;51.304;6.866;2023-08-01T14:49:44;20.90;99.90
25128;DHT22;13107;51.304;6.866;2023-08-01T14:53:46;21.10;99.90
25128;DHT22;13107;51.304;6.866;2023-08-01T14:57:48;21.20;99.90
25128;DHT22;13107;51.304;6.866;2023-08-01T15:01:50;21.20;99.90
25128;DHT22;13107;51.304;6.866;2023-08-01T15:05:52;21.20;99.90
25128;DHT22;13107;51.304;6.866;2023-08-01T15:09:54;21.70;99.90
25128;DHT22;13107;51.304;6.866;2023-08-01T15:13:57;21.90;99.90
25128;DHT22;13107;51.304;6.866;2023-08-01T15:17:59;22.30;99.90
25128;DHT22;13107;51.304;6.866;2023-08-01T15:22:01;22.20;99.90
25128;DHT22;13107;51.304;6.866;2023-08-01T15:26:03;21.80;99.90
25128;DHT22;13107;51.304;6.866;2023-08-01T15:30:05;22.00;99.90
25128;DHT22;13107;51.304;6.866;2023-08-01T15:34:08;21.70;99.90
25128;DHT22;13107;51.304;6.866;2023-08-01T15:38:10;21.10;99.90
25128;DHT22;13107;51.304;6.866;2023-08-01T15:42:12;20.80;99.90
25128;DHT22;13107;51.304;6.866;2023-08-01T15:46:14;20.70;99.90
25128;DHT22;13107;51.304;6.866;2023-08-01T15:50:16;20.50;99.90
25128;DHT22;13107;51.304;6.866;2023-08-01T15:54:17;20.20;99.90
25128;DHT22;13107;51.304;6.866;2023-08-01T15:58:19;20.10;99.90
25128;DHT22;13107;51.304;6.866;2023-08-01T16:02:21;20.00;99.90
25128;DHT22;13107;51.304;6.866;2023-08-01T16:06:22;20.10;99.90
25128;DHT22;13107;51.304;6.866;2023-08-01T16:10:24;20.00;99.90
25128;DHT22;13107;51.304;6.866;2023-08-01T16:14:26;19.90;99.90
25128;DHT22;13107;51.304;6.866;2023-08-01T16:18:31;20.10;99.90
25128;DHT22;13107;51.304;6.866;2023-08-01T16:22:33;20.30;99.90
25128;DHT22;13107;51.304;6.866;2023-08-01T16:26:34;20.40;99.90
25128;DHT22;13107;51.304;6.866;2023-08-01T16:30:36;20.30;99.90
25128;DHT22;13107;51.304;6.866;2023-08-01T16:34:38;20.20;99.90
25128;DHT22;13107;51.304;6.866;2023-08-01T16:38:40;20.30;99.90
25128;DHT22;13107;51.304;6.866;2023-08-01T16:42:43;20.40;99.90
25128;DHT22;13107;51.304;6.866;2023-08-01T16:46:44;20.30;99.90
25128;DHT22;13107;51.304;6.866;2023-08-01T16:50:47;20.30;99.90
25128;DHT22;13107;51.304;6.866;2023-08-01T16:54:48;20.30;99.90
25128;DHT22;13107;51.304;6.866;2023-08-01T16:58:50;20.20;99.90
25128;DHT22;13107;51.304;6.866;2023-08-01T17:02:57;20.20;99.90
25128;DHT22;13107;51.304;6.866;2023-08-01T17:06:59;20.00;99.90
25128;DHT22;13107;51.304;6.866;2023-08-01T17:11:05;19.90;99.90
25128;DHT22;13107;51.304;6.866;2023-08-01T17:15:07;19.80;99.90
25128;DHT22;13107;51.304;6.866;2023-08-01T17:19:11;19.70;99.90
25128;DHT22;13107;51.304;6.866;2023-08-01T17:23:13;19.50;99.90
25128;DHT22;13107;51.304;6.866;2023-08-01T17:27:14;19.60;99.90
25128;DHT22;13107;51.304;6.866;2023-08-01T17:31:16;19.50;99.90
25128;DHT22;13107;51.304;6.866;2023-08-01T17:35:19;19.50;99.90
25128;DHT22;13107;51.304;6.866;2023-08-01T17:39:21;19.50;99.90
25128;DHT22;13107;51.304;6.866;2023-08-01T17:43:23;19.40;99.90
25128;DHT22;13107;51.304;6.866;2023-08-01T17:47:25;19.30;99.90
25128;DHT22;13107;51.304;6.866;2023-08-01T17:51:29;19.30;99.90
25128;DHT22;13107;51.304;6.866;2023-08-01T17:55:31;19.30;99.90
25128;DHT22;13107;51.304;6.866;2023-08-01T17:59:33;19.40;99.90
25128;DHT22;13107;51.304;6.866;2023-08-01T18:03:37;19.50;99.90
25128;DHT22;13107;51.304;6.866;2023-08-01T18:07:39;19.40;99.90
25128;DHT22;13107;51.304;6.866;2023-08-01T18:11:41;19.50;99.90
25128;DHT22;13107;51.304;6.866;2023-08-01T18:15:43;19.40;99.90
25128;DHT22;13107;51.304;6.866;2023-08-01T18:19:44;19.30;99.90
25128;DHT22;13107;51.304;6.866;2023-08-01T18:23:47;19.20;99.90
25128;DHT22;13107;51.304;6.866;2023-08-01T18:27:49;19.00;99.90
25128;DHT22;13107;51.304;6.866;2023-08-01T18:31:51;18.90;99.90
25128;DHT22;13107;51.304;6.866;2023-08-01T18:35:52;18.70;99.90
25128;DHT22;13107;51.304;6.866;2023-08-01T18:39:55;18.60;99.90
25128;DHT22;13107;51.304;6.866;2023-08-01T18:43:56;18.50;99.90
25128;DHT22;13107;51.304;6.866;2023-08-01T18:47:58;18.40;99.90
25128;DHT22;13107;51.304;6.866;2023-08-01T18:52:00;18.30;99.90
25128;DHT22;13107;51.304;6.866;2023-08-01T18:56:06;18.30;99.90
25128;DHT22;13107;51.304;6.866;2023-08-01T19:00:13;18.30;99.90
25128;DHT22;13107;51.304;6.866;2023-08-01T19:04:14;18.20;99.90
25128;DHT22;13107;51.304;6.866;2023-08-01T19:08:16;18.20;99.90
25128;DHT22;13107;51.304;6.866;2023-08-01T19:12:18;18.20;99.90
25128;DHT22;13107;51.304;6.866;2023-08-01T19:16:20;18.20;99.90
25128;DHT22;13107;51.304;6.866;2023-08-01T19:20:22;18.20;99.90
25128;DHT22;13107;51.304;6.866;2023-08-01T19:24:24;18.10;99.90
25128;DHT22;13107;51.304;6.866;2023-08-01T19:28:25;18.00;99.90
25128;DHT22;13107;51.304;6.866;2023-08-01T19:32:27;18.00;99.90
25128;DHT22;13107;51.304;6.866;2023-08-01T19:36:29;18.00;99.90
25128;DHT22;13107;51.304;6.866;2023-08-01T19:40:31;17.90;99.90
25128;DHT22;13107;51.304;6.866;2023-08-01T19:44:34;17.90;99.90
25128;DHT22;13107;51.304;6.866;2023-08-01T19:48:36;17.80;99.90
25128;DHT22;13107;51.304;6.866;2023-08-01T19:52:38;17.70;99.90
25128;DHT22;13107;51.304;6.866;2023-08-01T19:56:41;17.80;99.90
25128;DHT22;13107;51.304;6.866;2023-08-01T20:00:43;17.70;99.90
25128;DHT22;13107;51.304;6.866;2023-08-01T20:04:46;17.80;99.90
25128;DHT22;13107;51.304;6.866;2023-08-01T20:08:48;17.70;99.90
25128;DHT22;13107;51.304;6.866;2023-08-01T20:12:50;17.70;99.90
25128;DHT22;13107;51.304;6.866;2023-08-01T20:16:51;17.60;99.90
25128;DHT22;13107;51.304;6.866;2023-08-01T20:20:54;17.50;99.90
25128;DHT22;13107;51.304;6.866;2023-08-01T20:24:56;17.50;99.90
25128;DHT22;13107;51.304;6.866;2023-08-01T20:28:58;17.30;99.90
25128;DHT22;13107;51.304;6.866;2023-08-01T20:33:00;17.20;99.90
25128;DHT22;13107;51.304;6.866;2023-08-01T20:37:02;17.20;99.90
25128;DHT22;13107;51.304;6.866;2023-08-01T20:41:14;17.20;99.90
25128;DHT22;13107;51.304;6.866;2023-08-01T20:45:17;17.10;99.90
25128;DHT22;13107;51.304;6.866;2023-08-01T20:49:20;17.00;99.90
25128;DHT22;13107;51.304;6.866;2023-08-01T20:53:21;17.00;99.90
25128;DHT22;13107;51.304;6.866;2023-08-01T20:57:23;17.00;99.90
25128;DHT22;13107;51.304;6.866;2023-08-01T21:01:25;16.90;99.90
25128;DHT22;13107;51.304;6.866;2023-08-01T21:05:27;16.90;99.90
25128;DHT22;13107;51.304;6.866;2023-08-01T21:09:29;16.80;99.90
25128;DHT22;13107;51.304;6.866;2023-08-01T21:13:31;16.90;99.90
25128;DHT22;13107;51.304;6.866;2023-08-01T21:17:32;16.90;99.90
25128;DHT22;13107;51.304;6.866;2023-08-01T21:21:34;16.70;99.90
25128;DHT22;13107;51.304;6.866;2023-08-01T21:25:36;16.80;99.90
25128;DHT22;13107;51.304;6.866;2023-08-01T21:29:38;16.70;99.90
25128;DHT22;13107;51.304;6.866;2023-08-01T21:33:39;16.60;99.90
25128;DHT22;13107;51.304;6.866;2023-08-01T21:37:41;16.50;99.90
25128;DHT22;13107;51.304;6.866;2023-08-01T21:41:43;16.30;99.90
25128;DHT22;13107;51.304;6.866;2023-08-01T21:45:53;16.30;99.90
25128;DHT22;13107;51.304;6.866;2023-08-01T21:49:55;16.10;99.90
25128;DHT22;13107;51.304;6.866;2023-08-01T21:53:56;16.00;99.90
25128;DHT22;13107;51.304;6.866;2023-08-01T21:57:59;15.90;99.90
25128;DHT22;13107;51.304;6.866;2023-08-01T22:02:01;15.90;99.90
25128;DHT22;13107;51.304;6.866;2023-08-01T22:06:03;15.80;99.90
25128;DHT22;13107;51.304;6.866;2023-08-01T22:10:05;15.90;99.90
25128;DHT22;13107;51.304;6.866;2023-08-01T22:14:11;15.90;99.90
25128;DHT22;13107;51.304;6.866;2023-08-01T22:18:13;16.00;99.90
25128;DHT22;13107;51.304;6.866;2023-08-01T22:22:25;16.10;99.90
25128;DHT22;13107;51.304;6.866;2023-08-01T22:26:27;16.10;99.90
25128;DHT22;13107;51.304;6.866;2023-08-01T22:30:29;16.10;99.90
25128;DHT22;13107;51.304;6.866;2023-08-01T22:34:31;16.10;99.90
25128;DHT22;13107;51.304;6.866;2023-08-01T22:38:32;16.00;99.90
25128;DHT22;13107;51.304;6.866;2023-08-01T22:42:34;16.00;99.90
25128;DHT22;13107;51.304;6.866;2023-08-01T22:46:36;16.00;99.90
25128;DHT22;13107;51.304;6.866;2023-08-01T22:50:38;15.90;99.90
25128;DHT22;13107;51.304;6.866;2023-08-01T22:54:40;15.90;99.90
25128;DHT22;13107;51.304;6.866;2023-08-01T22:58:42;15.80;99.90
25128;DHT22;13107;51.304;6.866;2023-08-01T23:02:44;15.70;99.90
25128;DHT22;13107;51.304;6.866;2023-08-01T23:06:46;15.70;99.90
25128;DHT22;13107;51.304;6.866;2023-08-01T23:10:48;15.70;99.90
25128;DHT22;13107;51.304;6.866;2023-08-01T23:14:50;15.90;99.90
25128;DHT22;13107;51.304;6.866;2023-08-01T23:18:51;15.80;99.90
25128;DHT22;13107;51.304;6.866;2023-08-01T23:22:53;15.80;99.90
25128;DHT22;13107;51.304;6.866;2023-08-01T23:26:55;15.80;99.90
25128;DHT22;13107;51.304;6.866;2023-08-01T23:30:57;15.80;99.90
25128;DHT22;13107;51.304;6.866;2023-08-01T23:34:59;15.70;99.90
25128;DHT22;13107;51.304;6.866;2023-08-01T23:39:01;15.70;99.90
25128;DHT22;13107;51.304;6.866;2023-08-01T23:43:04;15.80;99.90
25128;DHT22;13107;51.304;6.866;2023-08-01T23:47:08;15.70;99.90
25128;DHT22;13107;51.304;6.866;2023-08-01T23:51:16;15.80;99.90
25128;DHT22;13107;51.304;6.866;2023-08-01T23:55:17;15.70;99.90
25128;DHT22;13107;51.304;6.866;2023-08-01T23:59:19;15.60;99.90
